Northwest Arkansas Regional Airport
KXNA : rendu visible

Aérodrome :











RETROUVEZ-NOUS SUR...

 
LOGIN :

S'inscrire | Disclaimer

   EN    FR    IT 

 









Légende :    VFR   VFR Marginal   IFR   IFR Intensif   IFR Très Intensif
Visi : 
Plafond : 
>= 8 km
>= 3000ft
5 à 8 km
1000 à 3000 ft
1500m à 5 km
500 à 1000 ft
800 à 1500m
200 à 500 ft
< 800m
< 200 ft
Symboles :   Orages  Brouillard  Fortes neiges  Fortes précipitations  Vent > 20 kt






- Altitude de l'aérodrome : 1287 ft


KXNA - Northwest Arkansas Regional

DERNIER METAR :
  • 290553Z AUTO 28014G27KT 10SM -RA CLR 12/03 A2994 RMK AO2 PK WND 27031/0503 SLP130 P0000 60000 T01170028 10189 20117 402280117 51030

METARs EXPIRÉS :
  • 290453Z AUTO 28018G29KT 10SM -RA CLR 13/03 A2991 RMK AO2 PK WND 28029/0453 RAE0359B25 SLP122 P0000 T01280028
  • 290353Z AUTO 27015G29KT 10SM -RA CLR 14/02 A2987 RMK AO2 PK WND 27031/0325 RAB14 SLP107 P0000 T01440022

TAF KXNA
Valide du 29 à 06h jusqu'au 30 à 06h UTC


290520Z 2906/3006 28018G29KT P6SM SKC
FM290800 25008KT P6SM SKC
FM291500 25011KT P6SM SCT250
FM300100 VRB03KT P6SM SCT250



MET'MAP, la Météo Aéronautique d'un coup d'oeil ! - Copyright ORBIFLY Décembre 2007 - Disclaimer

ORBIFLY MET'MAP TEAM :

Programmation & Développement : Alexandra Zaïnal
Sur une idée originale de : Baudouin d'Aumeries
Assistance à la programmation : Marc-Olivier Méhu
Soutien technique & logistique : Manuel Goepfert

Contact : metmap@orbifly.com




SOURCES & CREDITS :

   NOAA       Earth
Advisory